Time;durP1;ratioP1;P1;durP2;ratioP2;P2;SDS_P1;SDS_P2;PMS_P1;PMS_P2;Temp;Humidity;BMP_temperature;BMP_pressure;BME280_temperature;BME280_humidity;BME280_pressure;Samples;Min_cycle;Max_cycle;Signal;HPM_P1;HPM_P2
2021/10/01 00:01:37;;;;;;;41.20;28.80;;;;;;;3.64;75.75;100722.88;477762;1190;141311;-61
2021/10/01 00:11:49;;;;;;;43.60;29.20;;;;;;;3.61;75.77;100720.35;476819;1191;142607;-59
2021/10/01 00:21:54;;;;;;;47.10;31.20;;;;;;;3.52;75.83;100719.81;477896;1190;141960;-59
2021/10/01 00:32:01;;;;;;;50.60;33.00;;;;;;;3.47;75.84;100708.98;470678;1190;142431;-59
2021/10/01 00:42:08;;;;;;;49.90;33.00;;;;;;;3.40;75.55;100702.69;471225;1191;141965;-60
2021/10/01 00:52:16;;;;;;;47.80;33.60;;;;;;;3.33;75.74;100696.73;469498;1191;141509;-60
2021/10/01 01:02:22;;;;;;;51.30;31.60;;;;;;;3.23;75.73;100693.27;475745;1190;141515;-59
2021/10/01 01:12:39;;;;;;;44.20;30.20;;;;;;;3.13;76.00;100689.10;477921;1190;142141;-60
2021/10/01 01:22:52;;;;;;;51.50;33.80;;;;;;;3.07;76.11;100695.08;471363;1191;142265;-60
2021/10/01 01:33:01;;;;;;;41.70;31.40;;;;;;;3.02;76.10;100699.98;475104;1191;142114;-58
2021/10/01 01:43:10;;;;;;;45.80;31.20;;;;;;;2.94;76.10;100700.27;471369;1190;142295;-61
2021/10/01 01:53:19;;;;;;;42.90;30.60;;;;;;;2.87;76.18;100701.93;475595;1190;142327;-60
2021/10/01 02:03:26;;;;;;;51.00;32.40;;;;;;;2.77;76.10;100704.83;464055;1190;143920;-58
2021/10/01 02:13:32;;;;;;;;;;;;;;;2.71;76.15;100706.14;462914;1190;142119;-60
2021/10/01 02:23:40;;;;;;;47.10;31.70;;;;;;;2.62;76.28;100709.19;475114;1190;127648;-61
2021/10/01 02:33:45;;;;;;;;;;;;;;;2.54;76.36;100711.19;469433;1190;142317;-59
2021/10/01 02:43:51;;;;;;;45.90;30.80;;;;;;;2.45;76.52;100704.05;471098;1190;127833;-59
2021/10/01 02:54:06;;;;;;;44.70;30.50;;;;;;;2.40;76.48;100704.80;475054;1190;142620;-58
2021/10/01 03:04:13;;;;;;;47.80;31.20;;;;;;;2.37;76.63;100700.16;470785;1190;142311;-58
2021/10/01 03:14:21;;;;;;;44.00;30.40;;;;;;;2.33;76.57;100701.75;476956;1190;142626;-59
2021/10/01 03:24:27;;;;;;;45.40;28.40;;;;;;;2.29;76.75;100701.82;468299;1191;142641;-58
2021/10/01 03:34:33;;;;;;;42.40;28.80;;;;;;;2.23;77.00;100695.98;462276;1190;141345;-58
2021/10/01 03:44:40;;;;;;;48.20;30.10;;;;;;;2.19;77.23;100697.77;466824;1190;141096;-58
2021/10/01 03:54:48;;;;;;;40.70;26.60;;;;;;;2.10;76.99;100690.80;467588;1190;144224;-58
2021/10/01 04:04:55;;;;;;;40.30;27.20;;;;;;;2.05;77.02;100684.27;461727;1192;141803;-59
2021/10/01 04:15:01;;;;;;;36.10;26.00;;;;;;;1.99;77.05;100685.05;462206;1192;142622;-58
2021/10/01 04:25:08;;;;;;;40.80;26.40;;;;;;;1.92;76.88;100682.18;461465;1192;142224;-57
2021/10/01 04:35:14;;;;;;;40.20;26.40;;;;;;;1.85;77.06;100676.57;461054;1192;143449;-57
2021/10/01 04:45:20;;;;;;;36.00;25.90;;;;;;;1.82;77.09;100674.70;461880;1192;141541;-58
2021/10/01 04:55:27;;;;;;;36.20;25.60;;;;;;;1.91;77.12;100675.29;463450;1191;142820;-58
2021/10/01 05:05:34;;;;;;;35.00;26.20;;;;;;;2.05;77.03;100673.41;461143;1192;142247;-65
2021/10/01 05:15:42;;;;;;;40.10;28.30;;;;;;;2.30;77.36;100674.84;461131;1177;142418;-64
2021/10/01 05:25:49;;;;;;;41.50;29.40;;;;;;;2.97;77.19;100680.16;462116;1190;140936;-63
2021/10/01 05:35:55;;;;;;;41.60;28.80;;;;;;;3.57;77.07;100685.23;460303;1190;142387;-63
2021/10/01 05:46:02;;;;;;;33.80;22.60;;;;;;;7.20;76.30;100682.91;461236;1190;142770;-67
2021/10/01 05:56:08;;;;;;;33.90;20.50;;;;;;;13.03;70.04;100680.01;464678;1190;141717;-65
2021/10/01 06:06:14;;;;;;;24.40;16.30;;;;;;;17.11;64.90;100666.92;462472;1191;212808;-65
2021/10/01 06:16:20;;;;;;;29.70;18.80;;;;;;;22.56;58.31;100657.84;466769;1191;142760;-65
2021/10/01 06:26:27;;;;;;;27.10;18.30;;;;;;;26.33;51.87;100650.30;460417;1191;141327;-67
2021/10/01 06:36:33;;;;;;;24.20;19.30;;;;;;;29.58;46.60;100648.80;461206;1192;142447;-73
2021/10/01 06:46:44;;;;;;;14.20;12.10;;;;;;;31.87;41.42;100646.02;470658;1190;142298;-67
2021/10/01 08:19:59;;;;;;;6.90;3.20;;;;;;;31.42;26.95;100642.65;473794;1192;142072;-63
2021/10/01 08:30:09;;;;;;;3.10;2.80;;;;;;;32.98;25.94;100639.02;471256;1192;141384;-64
2021/10/01 08:40:16;;;;;;;5.00;3.40;;;;;;;31.55;26.23;100637.15;477820;1190;140837;-63
2021/10/01 08:50:23;;;;;;;4.50;3.50;;;;;;;30.62;26.54;100633.24;473416;1190;140419;-60
2021/10/01 09:00:29;;;;;;;6.30;3.40;;;;;;;29.09;27.38;100627.11;460996;1187;142209;-62
2021/10/01 09:10:33;;;;;;;;;;;;;;;26.38;28.76;100620.97;472379;1190;141881;-61
2021/10/01 09:20:40;;;;;;;5.40;3.00;;;;;;;24.20;30.83;100620.95;466901;1189;128634;-61
2021/10/01 09:30:48;;;;;;;4.90;2.20;;;;;;;22.81;31.73;100620.82;461032;1190;144239;-63
2021/10/01 09:41:15;;;;;;;7.20;3.10;;;;;;;21.30;33.00;100615.48;461295;1190;142423;-60
2021/10/01 09:51:22;;;;;;;3.50;2.60;;;;;;;20.50;34.54;100614.34;460713;1177;140562;-61
2021/10/01 10:01:28;;;;;;;2.10;1.20;;;;;;;20.13;35.21;100614.98;471422;1191;142476;-61
2021/10/01 10:11:41;;;;;;;4.70;2.80;;;;;;;19.73;35.41;100614.61;476837;1191;141561;-62
2021/10/01 10:21:47;;;;;;;5.90;1.60;;;;;;;19.59;36.29;100602.89;475171;1191;140816;-63
2021/10/01 10:31:54;;;;;;;3.50;1.30;;;;;;;19.00;36.23;100603.92;471521;1190;141311;-61
2021/10/01 10:42:11;;;;;;;3.30;1.50;;;;;;;18.51;37.16;100603.29;466943;1191;141536;-65
2021/10/01 10:52:18;;;;;;;3.00;1.90;;;;;;;18.19;37.94;100591.88;465859;1190;146004;-66
2021/10/01 11:02:28;;;;;;;4.10;1.50;;;;;;;17.59;38.55;100572.91;465905;1190;143559;-64
2021/10/01 11:12:35;;;;;;;1.90;1.30;;;;;;;17.05;39.61;100555.45;471719;1192;194980;-63
2021/10/01 11:22:42;;;;;;;2.50;1.40;;;;;;;16.68;39.68;100546.50;460531;1187;142914;-64
2021/10/01 11:32:50;;;;;;;2.40;2.10;;;;;;;16.17;40.23;100536.77;469232;1190;141278;-64
2021/10/01 11:42:59;;;;;;;3.50;2.50;;;;;;;16.00;40.93;100530.91;467360;1190;140645;-64
2021/10/01 11:53:08;;;;;;;2.70;1.80;;;;;;;15.88;41.18;100517.27;464346;1192;142722;-66
2021/10/01 12:03:17;;;;;;;2.80;1.50;;;;;;;15.59;41.95;100513.64;464048;1192;140387;-66
2021/10/01 12:13:25;;;;;;;7.30;2.90;;;;;;;15.50;42.49;100493.15;477755;1190;142021;-63
2021/10/01 12:23:35;;;;;;;4.40;1.80;;;;;;;15.67;42.86;100486.46;466869;1191;141414;-60
2021/10/01 12:33:41;;;;;;;8.60;4.90;;;;;;;15.72;42.85;100472.34;466758;1190;141502;-57
2021/10/01 12:43:49;;;;;;;5.10;2.70;;;;;;;15.57;42.49;100453.80;469714;1191;140646;-59
2021/10/01 12:53:55;;;;;;;3.00;1.30;;;;;;;15.46;42.79;100448.02;464124;1190;142047;-59
2021/10/01 13:04:01;;;;;;;3.40;1.20;;;;;;;15.29;42.83;100431.77;471277;1189;140738;-57
2021/10/01 13:14:17;;;;;;;6.10;1.40;;;;;;;15.22;43.22;100421.51;461864;1190;141892;-59
2021/10/01 13:24:28;;;;;;;3.20;1.20;;;;;;;15.10;43.28;100407.53;469514;1190;142566;-61
2021/10/01 13:34:35;;;;;;;7.50;1.80;;;;;;;15.00;43.47;100399.77;473712;1190;141367;-60
2021/10/01 13:44:41;;;;;;;2.30;1.70;;;;;;;14.96;43.56;100392.42;475720;1190;141852;-59
2021/10/01 13:54:47;;;;;;;5.00;2.20;;;;;;;14.97;43.71;100382.64;477725;1190;140893;-55
2021/10/01 14:04:53;;;;;;;2.70;2.00;;;;;;;14.94;44.32;100378.10;476095;1190;141594;-60
2021/10/01 14:15:00;;;;;;;3.20;1.80;;;;;;;14.78;44.87;100372.73;459743;1191;147770;-59
2021/10/01 14:25:07;;;;;;;2.70;1.70;;;;;;;14.58;44.92;100366.26;469862;1190;141295;-59
2021/10/01 14:35:16;;;;;;;6.10;2.60;;;;;;;14.45;44.94;100364.34;466628;1183;141586;-60
2021/10/01 14:45:22;;;;;;;2.80;1.90;;;;;;;14.29;44.61;100352.74;473611;1190;141688;-59
2021/10/01 14:55:30;;;;;;;3.40;2.70;;;;;;;14.20;44.88;100349.29;471981;1190;141192;-60
2021/10/01 15:05:36;;;;;;;2.00;1.60;;;;;;;14.04;44.90;100346.79;461255;1190;142012;-57
2021/10/01 15:15:43;;;;;;;3.40;1.70;;;;;;;13.86;44.49;100341.83;475656;1189;141807;-59
2021/10/01 15:25:48;;;;;;;4.90;2.70;;;;;;;13.70;45.14;100338.10;475669;1177;141305;-59
2021/10/01 15:35:55;;;;;;;3.80;3.10;;;;;;;13.48;46.06;100337.05;476249;1191;142326;-59
2021/10/01 15:46:01;;;;;;;6.40;4.40;;;;;;;13.21;47.43;100339.59;477509;1191;141428;-60
2021/10/01 15:56:08;;;;;;;11.30;5.20;;;;;;;12.87;48.77;100338.01;477405;1190;142281;-59
2021/10/01 16:06:14;;;;;;;7.80;6.20;;;;;;;12.50;50.43;100342.67;461518;1190;10001494;-59
2021/10/01 16:16:20;;;;;;;12.30;7.30;;;;;;;12.13;51.82;100344.85;470313;1190;141695;-57
2021/10/01 16:26:27;;;;;;;11.10;8.30;;;;;;;11.77;53.35;100333.56;476602;1191;142303;-58
2021/10/01 16:36:33;;;;;;;16.80;12.30;;;;;;;11.43;54.66;100328.44;474852;1191;141732;-59
2021/10/01 16:46:39;;;;;;;17.40;11.40;;;;;;;11.11;55.98;100325.77;471585;1191;141624;-58
2021/10/01 16:56:45;;;;;;;20.40;13.20;;;;;;;10.83;57.23;100321.15;476511;1191;144126;-58
2021/10/01 17:06:51;;;;;;;23.10;17.10;;;;;;;10.63;58.38;100328.49;468574;1191;145030;-57
2021/10/01 17:16:58;;;;;;;21.90;16.20;;;;;;;10.45;59.25;100325.22;470512;1190;146639;-57
2021/10/01 17:27:04;;;;;;;19.60;14.50;;;;;;;10.32;60.08;100317.31;476650;1191;143589;-59
2021/10/01 17:37:10;;;;;;;21.30;13.10;;;;;;;10.21;60.85;100308.38;465791;1190;152293;-56
2021/10/01 17:47:16;;;;;;;19.40;13.80;;;;;;;10.09;61.45;100301.83;465813;1190;144054;-62
2021/10/01 17:57:23;;;;;;;16.40;12.80;;;;;;;10.01;62.14;100288.05;477620;1190;142435;-61
2021/10/01 18:07:32;;;;;;;21.40;17.00;;;;;;;9.98;62.51;100285.06;470386;1191;141899;-62
2021/10/01 18:17:38;;;;;;;22.90;16.40;;;;;;;9.91;62.98;100276.14;469583;1191;142255;-62
2021/10/01 18:27:46;;;;;;;21.30;16.30;;;;;;;9.77;63.56;100276.13;477381;1190;142555;-62
2021/10/01 18:37:51;;;;;;;21.80;18.00;;;;;;;9.62;64.11;100268.61;469946;1191;141794;-60
2021/10/01 18:47:58;;;;;;;19.60;16.50;;;;;;;9.44;64.66;100266.02;467059;1190;142250;-60
2021/10/01 18:58:04;;;;;;;23.70;18.30;;;;;;;9.26;65.38;100267.20;467451;1190;142852;-61
2021/10/01 19:08:10;;;;;;;23.50;18.80;;;;;;;9.13;65.94;100258.36;460535;1190;164078;-61
2021/10/01 19:18:16;;;;;;;23.20;18.50;;;;;;;9.01;66.50;100246.21;477451;1192;143345;-60
2021/10/01 19:38:47;;;;;;;20.10;16.40;;;;;;;8.79;67.53;100230.61;476776;1190;142004;-60
2021/10/01 19:48:53;;;;;;;25.10;16.20;;;;;;;8.69;68.28;100227.40;463622;1191;142490;-61
2021/10/01 19:59:03;;;;;;;20.30;15.70;;;;;;;8.59;68.69;100223.85;461581;1192;142230;-58
2021/10/01 20:09:10;;;;;;;19.40;16.10;;;;;;;8.52;69.16;100213.86;473321;1191;141697;-60
2021/10/01 20:50:40;;;;;;;22.60;14.00;;;;;;;8.08;70.55;100178.65;464430;1190;143011;-62
2021/10/01 21:00:55;;;;;;;19.80;14.50;;;;;;;7.92;71.03;100168.52;461340;1188;142836;-74
2021/10/01 21:42:23;;;;;;;16.70;12.70;;;;;;;7.44;72.82;100137.10;463630;1191;141620;-68
2021/10/01 21:52:33;;;;;;;18.70;14.30;;;;;;;7.34;73.15;100140.33;464917;1191;141673;-68
2021/10/01 22:13:44;;;;;;;20.40;15.50;;;;;;;7.12;73.69;100119.08;465246;1190;141091;-68
2021/10/01 22:23:53;;;;;;;19.80;14.80;;;;;;;7.03;74.19;100103.45;469747;1183;141097;-71
2021/10/01 22:33:58;;;;;;;19.00;13.70;;;;;;;6.95;74.54;100092.60;463124;1192;141939;-71
2021/10/01 22:44:09;;;;;;;18.70;12.70;;;;;;;6.89;75.09;100082.41;461157;1191;140979;-67
2021/10/01 22:54:16;;;;;;;18.00;13.20;;;;;;;6.83;75.49;100075.70;461621;1191;142480;-66
2021/10/01 23:04:23;;;;;;;16.60;14.20;;;;;;;6.76;75.88;100066.59;464939;1190;142759;-68
2021/10/01 23:14:36;;;;;;;17.00;13.70;;;;;;;6.68;76.37;100054.36;461427;1190;165577;-63
